createdAt,value
2018-09-11T00:00:37.152Z,99.90
2018-09-11T00:03:06.511Z,99.90
2018-09-11T00:05:35.876Z,99.90
2018-09-11T00:08:05.158Z,99.90
2018-09-11T00:10:34.561Z,99.90
2018-09-11T00:13:03.864Z,99.90
2018-09-11T00:15:33.199Z,99.90
2018-09-11T00:18:02.683Z,99.90
2018-09-11T00:20:31.987Z,99.90
2018-09-11T00:23:01.359Z,99.90
2018-09-11T00:25:30.619Z,99.90
2018-09-11T00:27:59.894Z,99.90
2018-09-11T00:30:29.199Z,99.90
2018-09-11T00:32:58.483Z,99.90
2018-09-11T00:35:27.756Z,99.90
2018-09-11T00:37:57.023Z,99.90
2018-09-11T00:40:26.381Z,99.90
2018-09-11T00:42:55.649Z,99.90
2018-09-11T00:45:24.952Z,99.90
2018-09-11T00:47:54.163Z,99.90
2018-09-11T00:50:24.270Z,99.90
2018-09-11T00:52:53.503Z,99.90
2018-09-11T00:55:22.829Z,99.90
2018-09-11T00:57:52.195Z,99.90
2018-09-11T01:00:21.606Z,99.90
2018-09-11T01:02:50.958Z,99.90
2018-09-11T01:05:20.284Z,99.90
2018-09-11T01:07:49.678Z,99.90
2018-09-11T01:10:18.941Z,99.90
2018-09-11T01:12:48.224Z,99.90
2018-09-11T01:15:17.476Z,99.90
2018-09-11T01:17:46.780Z,99.90
2018-09-11T01:20:16.035Z,99.90
2018-09-11T01:22:45.388Z,99.90
2018-09-11T01:25:14.669Z,99.90
2018-09-11T01:27:43.907Z,99.90
2018-09-11T01:30:17.372Z,99.90
2018-09-11T01:32:46.886Z,99.90
2018-09-11T01:35:16.262Z,99.90
2018-09-11T01:37:45.524Z,99.90
2018-09-11T01:40:15.033Z,99.90
2018-09-11T01:42:44.312Z,99.90
2018-09-11T01:45:13.607Z,99.90
2018-09-11T01:47:42.903Z,99.90
2018-09-11T01:50:12.206Z,99.90
2018-09-11T01:52:41.591Z,99.90
2018-09-11T01:55:10.839Z,99.90
2018-09-11T01:57:40.096Z,99.90
2018-09-11T02:00:17.243Z,99.90
2018-09-11T02:02:47.255Z,99.90
2018-09-11T02:05:16.968Z,99.90
2018-09-11T02:07:49.441Z,99.90
2018-09-11T02:10:18.737Z,99.90
2018-09-11T02:12:48.004Z,99.90
2018-09-11T02:15:17.432Z,99.90
2018-09-11T02:17:46.705Z,99.90
2018-09-11T02:20:16.187Z,99.90
2018-09-11T02:22:45.708Z,99.90
2018-09-11T02:25:15.037Z,99.90
2018-09-11T02:27:44.313Z,99.90
2018-09-11T02:30:13.592Z,99.90
2018-09-11T02:32:43.727Z,99.90
2018-09-11T02:35:12.984Z,99.90
2018-09-11T02:37:42.312Z,99.90
2018-09-11T02:40:11.616Z,99.90
2018-09-11T02:42:40.952Z,99.90
2018-09-11T02:45:10.250Z,99.90
2018-09-11T02:47:39.700Z,99.90
2018-09-11T02:50:09.186Z,99.90
2018-09-11T02:52:38.701Z,99.90
2018-09-11T02:55:08.815Z,99.90
2018-09-11T02:57:38.081Z,99.90
2018-09-11T03:00:07.535Z,99.90
2018-09-11T03:02:36.872Z,99.90
2018-09-11T03:05:06.312Z,99.90
2018-09-11T03:07:35.704Z,99.90
2018-09-11T03:10:05.112Z,99.90
2018-09-11T03:12:34.387Z,99.90
2018-09-11T03:15:03.719Z,99.90
2018-09-11T03:17:32.951Z,99.90
2018-09-11T03:20:02.724Z,99.90
2018-09-11T03:22:32.089Z,99.90
2018-09-11T03:25:01.344Z,99.90
2018-09-11T03:27:30.629Z,99.90
2018-09-11T03:29:59.858Z,99.90
2018-09-11T03:32:29.675Z,99.90
2018-09-11T03:34:59.012Z,99.90
2018-09-11T03:37:29.874Z,99.90
2018-09-11T03:39:59.167Z,99.90
2018-09-11T03:42:28.466Z,99.90
2018-09-11T03:44:57.735Z,99.90
2018-09-11T03:47:27.088Z,99.90
2018-09-11T03:49:56.379Z,99.90
2018-09-11T03:52:25.649Z,99.90
2018-09-11T03:54:54.959Z,99.90
2018-09-11T03:57:24.355Z,99.90
2018-09-11T03:59:53.743Z,99.90
2018-09-11T04:02:23.080Z,99.90
2018-09-11T04:04:52.366Z,99.90
2018-09-11T04:07:21.699Z,99.90
2018-09-11T04:09:50.950Z,99.90
2018-09-11T04:12:20.252Z,99.90
2018-09-11T04:14:49.588Z,99.90
2018-09-11T04:17:18.928Z,99.90
2018-09-11T04:19:48.212Z,99.90
2018-09-11T04:22:17.518Z,99.90
2018-09-11T04:24:46.897Z,99.90
2018-09-11T04:27:17.325Z,99.90
2018-09-11T04:29:46.618Z,99.90
2018-09-11T04:32:16.101Z,99.90
2018-09-11T04:34:47.315Z,99.90
2018-09-11T04:37:18.325Z,99.90
2018-09-11T04:39:48.109Z,99.90
2018-09-11T04:42:19.204Z,99.90
2018-09-11T04:44:49.100Z,99.90
2018-09-11T04:47:21.591Z,99.90
2018-09-11T04:49:51.182Z,99.90
2018-09-11T04:52:22.760Z,99.90
2018-09-11T04:54:53.965Z,99.90
2018-09-11T04:57:23.781Z,99.90
2018-09-11T04:59:53.412Z,99.90
2018-09-11T05:02:24.324Z,99.90
2018-09-11T05:04:54.563Z,99.90
2018-09-11T05:07:25.948Z,99.90
2018-09-11T05:09:56.587Z,99.90
2018-09-11T05:12:27.163Z,99.90
2018-09-11T05:14:57.301Z,99.90
2018-09-11T05:17:27.533Z,99.90
2018-09-11T05:22:32.943Z,99.90
2018-09-11T05:25:03.204Z,99.90
2018-09-11T05:27:33.218Z,99.90
2018-09-11T05:35:12.410Z,99.90
2018-09-11T05:37:42.900Z,99.90
2018-09-11T05:40:12.528Z,99.90
2018-09-11T05:42:42.940Z,99.90
2018-09-11T05:45:13.235Z,99.90
2018-09-11T05:47:43.768Z,99.90
2018-09-11T05:50:14.011Z,99.90
2018-09-11T05:52:44.727Z,99.90
2018-09-11T05:55:14.659Z,99.90
2018-09-11T05:57:44.006Z,99.90
2018-09-11T06:00:13.795Z,99.90
2018-09-11T06:02:45.923Z,99.90
2018-09-11T06:05:15.919Z,99.90
2018-09-11T06:07:46.779Z,99.90
2018-09-11T06:10:16.534Z,99.90
2018-09-11T06:12:45.856Z,99.90
2018-09-11T06:15:16.321Z,99.90
2018-09-11T06:17:46.116Z,99.90
2018-09-11T06:20:17.008Z,99.90
2018-09-11T06:22:47.126Z,99.90
2018-09-11T06:25:16.961Z,99.90
2018-09-11T06:27:47.297Z,99.90
2018-09-11T06:30:18.361Z,99.90
2018-09-11T06:32:49.349Z,99.90
2018-09-11T06:35:19.211Z,99.90
2018-09-11T06:37:48.749Z,99.90
2018-09-11T06:40:18.191Z,99.90
2018-09-11T06:42:47.571Z,99.90
2018-09-11T06:45:17.584Z,99.90
2018-09-11T06:47:47.400Z,99.90
2018-09-11T06:50:16.733Z,99.90
2018-09-11T06:52:46.083Z,99.90
2018-09-11T06:55:15.766Z,99.90
2018-09-11T06:57:44.998Z,99.90
2018-09-11T07:00:14.363Z,99.90
2018-09-11T07:02:43.631Z,99.90
2018-09-11T07:05:13.030Z,99.90
2018-09-11T07:07:42.422Z,99.90
2018-09-11T07:10:11.952Z,99.90
2018-09-11T07:12:41.375Z,99.90
2018-09-11T07:15:10.707Z,99.90
2018-09-11T07:17:40.104Z,99.90
2018-09-11T07:20:10.257Z,99.90
2018-09-11T07:22:39.458Z,99.90
2018-09-11T07:25:08.892Z,99.90
2018-09-11T07:27:38.337Z,99.90
2018-09-11T07:30:07.785Z,99.90
2018-09-11T07:32:37.778Z,99.90
2018-09-11T07:35:08.657Z,99.90
2018-09-11T07:37:38.374Z,99.90
2018-09-11T07:40:08.543Z,99.90
2018-09-11T07:43:02.487Z,99.90
2018-09-11T07:45:36.866Z,99.90
2018-09-11T07:48:09.539Z,99.90
2018-09-11T07:50:39.981Z,99.90
2018-09-11T07:53:14.194Z,99.90
2018-09-11T07:55:45.088Z,99.90
2018-09-11T07:58:16.780Z,99.90
2018-09-11T08:00:47.008Z,99.90
2018-09-11T08:06:27.063Z,99.90
2018-09-11T08:08:57.013Z,99.90
2018-09-11T08:11:26.440Z,99.90
2018-09-11T08:13:56.036Z,99.90
2018-09-11T08:16:26.026Z,99.90
2018-09-11T08:18:56.143Z,99.90
2018-09-11T08:21:25.955Z,99.90
2018-09-11T08:23:55.398Z,99.90
2018-09-11T08:26:24.719Z,99.90
2018-09-11T08:28:54.151Z,99.90
2018-09-11T08:31:23.428Z,99.90
2018-09-11T08:33:52.696Z,99.90
2018-09-11T08:36:22.161Z,99.90
2018-09-11T08:38:51.430Z,99.90
2018-09-11T08:41:20.706Z,99.90
2018-09-11T08:43:50.687Z,99.90
2018-09-11T08:46:20.001Z,99.90
2018-09-11T08:48:49.383Z,99.90
2018-09-11T08:51:27.194Z,99.90
2018-09-11T08:53:56.985Z,99.90
2018-09-11T08:56:26.359Z,99.90
2018-09-11T08:58:55.838Z,99.90
2018-09-11T09:01:25.192Z,99.90
2018-09-11T09:03:54.604Z,99.90
2018-09-11T09:06:24.215Z,99.90
2018-09-11T09:08:54.747Z,99.90
2018-09-11T09:11:26.642Z,99.90
2018-09-11T09:16:57.517Z,99.90
2018-09-11T09:25:32.566Z,99.90
2018-09-11T09:31:48.425Z,99.90
2018-09-11T09:34:22.576Z,99.90
2018-09-11T09:36:55.427Z,99.90
2018-09-11T09:46:56.480Z,99.90
2018-09-11T10:35:24.734Z,99.90
2018-09-11T10:38:07.358Z,99.90
2018-09-11T10:40:37.895Z,99.90
2018-09-11T10:43:09.439Z,99.90
2018-09-11T10:45:38.678Z,99.90
2018-09-11T10:48:07.889Z,99.90
2018-09-11T10:50:37.149Z,99.90
2018-09-11T10:53:06.485Z,99.90
2018-09-11T10:55:35.647Z,99.90
2018-09-11T10:58:04.946Z,99.90
2018-09-11T11:00:34.260Z,99.90
2018-09-11T11:03:03.853Z,99.90
2018-09-11T11:05:33.468Z,99.90
2018-09-11T11:08:02.769Z,99.90
2018-09-11T11:10:32.165Z,99.90
2018-09-11T11:13:01.906Z,99.90
2018-09-11T11:15:31.323Z,99.90
2018-09-11T11:18:00.726Z,99.90
2018-09-11T11:20:30.079Z,99.90
2018-09-11T11:22:59.394Z,99.90
2018-09-11T11:25:28.736Z,99.90
2018-09-11T11:27:58.020Z,99.90
2018-09-11T11:30:27.342Z,99.90
2018-09-11T11:32:56.671Z,99.90
2018-09-11T11:35:25.998Z,99.90
2018-09-11T11:37:55.237Z,99.90
2018-09-11T11:40:24.619Z,99.90
2018-09-11T11:42:53.884Z,99.90
2018-09-11T11:45:23.206Z,99.90
2018-09-11T11:47:52.517Z,99.90
2018-09-11T11:50:21.803Z,99.90
2018-09-11T11:52:51.119Z,99.90
2018-09-11T11:55:20.445Z,99.90
2018-09-11T11:57:49.736Z,99.90
2018-09-11T12:00:19.058Z,99.90
2018-09-11T12:02:49.044Z,99.90
2018-09-11T12:05:18.535Z,99.90
2018-09-11T12:07:47.864Z,99.90
2018-09-11T12:10:17.386Z,99.90
2018-09-11T12:12:46.712Z,99.90
2018-09-11T12:15:16.117Z,99.90
2018-09-11T12:17:45.440Z,99.90
2018-09-11T12:20:14.902Z,99.90
2018-09-11T12:22:44.257Z,99.90
2018-09-11T12:25:13.596Z,99.90
2018-09-11T12:27:43.068Z,99.90
2018-09-11T12:30:12.373Z,99.90
2018-09-11T12:32:41.656Z,99.90
2018-09-11T12:35:11.012Z,99.90
2018-09-11T12:37:40.462Z,99.90
2018-09-11T12:40:09.784Z,99.90
2018-09-11T12:42:39.123Z,99.90
2018-09-11T12:45:08.502Z,99.90
2018-09-11T12:47:38.123Z,99.90
2018-09-11T12:50:07.288Z,99.90
2018-09-11T12:52:36.641Z,99.90
2018-09-11T12:55:06.014Z,99.90
2018-09-11T12:57:35.360Z,99.90
2018-09-11T13:00:04.782Z,99.90
2018-09-11T13:02:34.127Z,99.90
2018-09-11T13:05:03.472Z,99.90
2018-09-11T13:07:32.821Z,99.90
2018-09-11T13:10:02.173Z,99.90
2018-09-11T13:12:31.501Z,99.90
2018-09-11T13:15:00.784Z,99.90
2018-09-11T13:17:30.040Z,99.30
2018-09-11T13:19:59.320Z,99.90
2018-09-11T13:22:28.505Z,99.90
2018-09-11T13:24:58.675Z,99.70
2018-09-11T13:27:27.890Z,97.30
2018-09-11T13:29:57.192Z,97.80
2018-09-11T13:32:26.395Z,97.40
2018-09-11T13:34:55.576Z,96.30
2018-09-11T13:37:24.796Z,96.10
2018-09-11T13:39:54.019Z,96.70
2018-09-11T13:42:23.291Z,96.30
2018-09-11T13:44:52.524Z,95.50
2018-09-11T13:47:21.857Z,95.20
2018-09-11T13:49:50.982Z,95.80
2018-09-11T13:52:20.455Z,95.40
2018-09-11T13:54:49.677Z,95.80
2018-09-11T13:57:18.923Z,95.70
2018-09-11T13:59:48.579Z,95.60
2018-09-11T14:02:17.776Z,94.80
2018-09-11T14:04:47.307Z,95.10
2018-09-11T14:07:16.541Z,95.70
2018-09-11T14:09:45.814Z,94.30
2018-09-11T14:12:15.483Z,94.00
2018-09-11T14:14:44.788Z,94.00
2018-09-11T14:17:14.023Z,93.80
2018-09-11T14:19:43.282Z,93.50
2018-09-11T14:22:12.598Z,93.40
2018-09-11T14:24:41.896Z,93.10
2018-09-11T14:27:11.156Z,93.20
2018-09-11T14:29:40.381Z,93.20
2018-09-11T14:32:09.731Z,94.00
2018-09-11T14:34:39.130Z,94.00
2018-09-11T14:37:08.344Z,93.70
2018-09-11T14:39:37.576Z,94.00
2018-09-11T14:42:06.931Z,93.90
2018-09-11T14:44:36.497Z,93.40
2018-09-11T14:47:06.256Z,93.20
2018-09-11T14:49:35.752Z,94.10
2018-09-11T14:52:05.238Z,94.00
2018-09-11T14:54:34.490Z,94.30
2018-09-11T14:57:03.778Z,94.20
2018-09-11T14:59:33.180Z,94.30
2018-09-11T15:02:02.495Z,94.40
2018-09-11T15:04:31.773Z,95.20
2018-09-11T15:07:01.045Z,94.80
2018-09-11T15:12:03.834Z,93.90
2018-09-11T15:14:33.193Z,93.90
2018-09-11T15:17:02.479Z,93.80
2018-09-11T15:19:31.774Z,94.50
2018-09-11T15:22:01.085Z,93.80
2018-09-11T15:24:30.343Z,93.00
2018-09-11T15:26:59.720Z,93.20
2018-09-11T15:29:29.038Z,92.60
2018-09-11T15:31:58.375Z,93.80
2018-09-11T15:34:27.832Z,93.30
2018-09-11T15:36:57.704Z,93.00
2018-09-11T15:39:27.601Z,93.00
2018-09-11T15:41:57.019Z,93.20
2018-09-11T15:44:26.620Z,93.00
2018-09-11T15:46:56.169Z,93.60
2018-09-11T15:49:25.564Z,93.10
2018-09-11T15:51:54.851Z,92.80
2018-09-11T15:54:24.168Z,92.90
2018-09-11T15:56:53.428Z,93.10
2018-09-11T15:59:22.748Z,92.90
2018-09-11T16:01:51.988Z,92.50
2018-09-11T16:04:21.337Z,92.20
2018-09-11T16:06:50.743Z,92.30
2018-09-11T16:09:20.220Z,91.90
2018-09-11T16:11:49.515Z,93.10
2018-09-11T16:14:18.827Z,92.30
2018-09-11T16:16:48.751Z,92.20
2018-09-11T16:19:18.012Z,92.30
2018-09-11T16:21:47.341Z,92.20
2018-09-11T16:24:16.588Z,92.00
2018-09-11T16:26:45.946Z,92.30
2018-09-11T16:29:15.188Z,92.00
2018-09-11T16:31:44.512Z,92.30
2018-09-11T16:34:14.159Z,92.30
2018-09-11T16:36:43.782Z,92.40
2018-09-11T16:39:14.877Z,93.10
2018-09-11T16:41:44.202Z,93.30
2018-09-11T16:44:13.493Z,93.80
2018-09-11T16:46:42.814Z,93.40
2018-09-11T16:49:12.604Z,94.10
2018-09-11T16:51:41.863Z,94.70
2018-09-11T16:54:11.115Z,94.40
2018-09-11T16:56:40.397Z,94.50
2018-09-11T16:59:09.703Z,95.00
2018-09-11T17:01:39.000Z,95.90
2018-09-11T17:04:08.355Z,96.10
2018-09-11T17:06:37.711Z,96.70
2018-09-11T17:09:09.329Z,97.60
2018-09-11T17:11:38.680Z,99.00
2018-09-11T17:14:08.076Z,99.90
2018-09-11T17:16:37.452Z,99.90
2018-09-11T17:19:06.795Z,99.90
2018-09-11T17:21:36.115Z,99.90
2018-09-11T17:24:05.440Z,99.90
2018-09-11T17:26:34.776Z,99.90
2018-09-11T17:29:04.149Z,99.90
2018-09-11T17:31:33.563Z,99.90
2018-09-11T17:34:02.830Z,99.90
2018-09-11T17:36:32.232Z,99.90
2018-09-11T17:39:01.627Z,99.90
2018-09-11T17:41:31.356Z,99.90
2018-09-11T17:44:00.723Z,99.90
2018-09-11T17:46:30.939Z,99.90
2018-09-11T17:49:00.634Z,99.90
2018-09-11T17:51:30.061Z,99.90
2018-09-11T17:53:59.557Z,99.90
2018-09-11T17:56:29.193Z,99.90
2018-09-11T17:58:58.690Z,99.90
2018-09-11T18:01:29.734Z,99.90
2018-09-11T18:04:00.588Z,99.90
2018-09-11T18:06:30.732Z,99.90
2018-09-11T18:09:00.471Z,99.90
2018-09-11T18:11:30.190Z,99.90
2018-09-11T18:13:59.977Z,99.90
2018-09-11T18:16:29.695Z,99.90
2018-09-11T18:18:59.408Z,99.90
2018-09-11T18:21:29.489Z,99.90
2018-09-11T18:23:59.183Z,99.90
2018-09-11T18:26:28.811Z,99.90
2018-09-11T18:28:58.502Z,99.90
2018-09-11T18:31:28.051Z,99.90
2018-09-11T18:33:57.731Z,99.90
2018-09-11T18:36:27.141Z,99.90
2018-09-11T18:38:56.881Z,99.90
2018-09-11T18:41:26.562Z,99.90
2018-09-11T18:43:56.172Z,99.90
2018-09-11T18:46:25.810Z,99.90
2018-09-11T18:51:33.543Z,99.90
2018-09-11T18:54:03.243Z,99.90
2018-09-11T18:56:33.529Z,99.90
2018-09-11T18:59:03.194Z,99.90
2018-09-11T19:01:32.782Z,99.90
2018-09-11T19:04:02.472Z,99.90
2018-09-11T19:06:32.049Z,99.90
2018-09-11T19:09:01.799Z,99.90
2018-09-11T19:11:31.561Z,99.90
2018-09-11T19:14:01.504Z,99.90
2018-09-11T19:16:31.289Z,99.90
2018-09-11T19:19:01.018Z,99.90
2018-09-11T19:21:37.660Z,99.90
2018-09-11T19:26:48.951Z,99.90
2018-09-11T19:29:23.239Z,99.90
2018-09-11T19:31:55.418Z,99.90
2018-09-11T19:34:25.315Z,99.90
2018-09-11T19:36:55.163Z,99.90
2018-09-11T19:39:24.837Z,99.90
2018-09-11T19:41:56.758Z,99.90
2018-09-11T19:44:26.699Z,99.90
2018-09-11T19:46:56.147Z,99.90
2018-09-11T19:49:25.619Z,99.90
2018-09-11T19:51:54.971Z,99.90
2018-09-11T19:54:25.618Z,99.90
2018-09-11T19:56:55.291Z,99.90
2018-09-11T19:59:26.816Z,99.90
2018-09-11T20:01:56.264Z,99.90
2018-09-11T20:04:25.606Z,99.90
2018-09-11T20:06:55.273Z,99.90
2018-09-11T20:09:25.016Z,99.90
2018-09-11T20:11:55.265Z,99.90
2018-09-11T20:14:27.496Z,99.90
2018-09-11T20:16:56.853Z,99.90
2018-09-11T20:19:26.562Z,99.90
2018-09-11T20:21:56.505Z,99.90
2018-09-11T20:24:27.573Z,99.90
2018-09-11T20:26:57.546Z,99.90
2018-09-11T20:29:27.614Z,99.90
2018-09-11T20:31:57.667Z,99.90
2018-09-11T20:34:28.676Z,99.90
2018-09-11T20:37:00.045Z,99.90
2018-09-11T20:39:30.008Z,99.90
2018-09-11T20:41:59.811Z,99.90
2018-09-11T20:44:29.880Z,99.90
2018-09-11T20:47:00.089Z,99.90
2018-09-11T20:49:29.697Z,99.90
2018-09-11T20:51:59.390Z,99.90
2018-09-11T20:54:36.884Z,99.90
2018-09-11T20:57:06.885Z,99.90
2018-09-11T20:59:36.773Z,99.90
2018-09-11T21:02:06.930Z,99.90
2018-09-11T21:04:36.886Z,99.90
2018-09-11T21:07:06.893Z,99.90
2018-09-11T21:09:36.539Z,99.90
2018-09-11T21:12:06.155Z,99.90
2018-09-11T21:14:35.884Z,99.90
2018-09-11T21:17:05.666Z,99.90
2018-09-11T21:19:36.932Z,99.90
2018-09-11T21:22:06.627Z,99.90
2018-09-11T21:24:36.150Z,99.90
2018-09-11T21:27:05.807Z,99.90
2018-09-11T21:29:35.514Z,99.90
2018-09-11T21:32:04.996Z,99.90
2018-09-11T21:34:34.632Z,99.90
2018-09-11T21:37:05.153Z,99.90
2018-09-11T21:39:34.728Z,99.90
2018-09-11T21:42:04.469Z,99.90
2018-09-11T21:44:33.795Z,99.90
2018-09-11T21:47:03.259Z,99.90
2018-09-11T21:49:32.555Z,99.90
2018-09-11T21:52:02.251Z,99.90
2018-09-11T21:54:31.699Z,99.90
2018-09-11T21:57:01.040Z,99.90
2018-09-11T21:59:30.471Z,99.90
2018-09-11T22:02:01.928Z,99.90
2018-09-11T22:04:31.209Z,99.90
2018-09-11T22:07:00.786Z,99.90
2018-09-11T22:09:30.091Z,99.90
2018-09-11T22:11:59.467Z,99.90
2018-09-11T22:14:29.015Z,99.90
2018-09-11T22:16:58.500Z,99.90
2018-09-11T22:19:27.993Z,99.90
2018-09-11T22:21:57.267Z,99.90
2018-09-11T22:24:26.527Z,99.90
2018-09-11T22:26:55.774Z,99.90
2018-09-11T22:29:25.569Z,99.90
2018-09-11T22:31:54.808Z,99.90
2018-09-11T22:34:24.055Z,99.90
2018-09-11T22:36:53.350Z,99.90
2018-09-11T22:39:22.872Z,99.90
2018-09-11T22:41:52.208Z,99.90
2018-09-11T22:44:21.628Z,99.90
2018-09-11T22:46:51.271Z,99.90
2018-09-11T22:49:20.550Z,99.90
2018-09-11T22:51:49.832Z,99.90
2018-09-11T22:54:19.557Z,99.90
2018-09-11T22:56:48.909Z,99.90
2018-09-11T22:59:18.242Z,99.90
2018-09-11T23:01:47.644Z,99.90
2018-09-11T23:04:17.021Z,99.90
2018-09-11T23:06:46.300Z,99.90
2018-09-11T23:09:15.643Z,99.90
2018-09-11T23:11:45.336Z,99.90
2018-09-11T23:14:14.619Z,99.90
2018-09-11T23:16:44.033Z,99.90
2018-09-11T23:19:13.351Z,99.90
2018-09-11T23:21:42.747Z,99.90
2018-09-11T23:24:12.090Z,99.90
2018-09-11T23:26:43.743Z,99.90
2018-09-11T23:29:20.130Z,99.90
2018-09-11T23:31:51.033Z,99.90
2018-09-11T23:34:23.470Z,99.90
2018-09-11T23:36:59.204Z,99.90
2018-09-11T23:39:30.991Z,99.90
2018-09-11T23:42:02.749Z,99.90
2018-09-11T23:44:39.179Z,99.90
2018-09-11T23:47:08.689Z,99.90
2018-09-11T23:49:39.659Z,99.90
2018-09-11T23:52:11.541Z,99.90
2018-09-11T23:54:44.738Z,99.90
2018-09-11T23:57:14.034Z,99.90
2018-09-11T23:59:47.568Z,99.90
